sensor_id;sensor_type;location;lat;lon;timestamp;P1;durP1;ratioP1;P2;durP2;ratioP2
10550;SDS011;5324;50.684;3.862;2022-07-06T00:01:45;1.73;;;1.63;;
10550;SDS011;5324;50.684;3.862;2022-07-06T00:04:12;2.13;;;1.70;;
10550;SDS011;5324;50.684;3.862;2022-07-06T00:06:39;2.70;;;1.53;;
10550;SDS011;5324;50.684;3.862;2022-07-06T00:09:05;2.30;;;1.97;;
10550;SDS011;5324;50.684;3.862;2022-07-06T00:11:31;2.30;;;1.97;;
10550;SDS011;5324;50.684;3.862;2022-07-06T00:13:57;1.93;;;1.70;;
10550;SDS011;5324;50.684;3.862;2022-07-06T00:16:23;2.07;;;1.87;;
10550;SDS011;5324;50.684;3.862;2022-07-06T00:18:51;2.80;;;1.70;;
10550;SDS011;5324;50.684;3.862;2022-07-06T00:21:17;2.40;;;1.90;;
10550;SDS011;5324;50.684;3.862;2022-07-06T00:23:43;1.70;;;1.60;;
10550;SDS011;5324;50.684;3.862;2022-07-06T00:26:09;1.83;;;1.73;;
10550;SDS011;5324;50.684;3.862;2022-07-06T00:28:36;1.63;;;1.50;;
10550;SDS011;5324;50.684;3.862;2022-07-06T00:31:02;1.70;;;1.60;;
10550;SDS011;5324;50.684;3.862;2022-07-06T00:33:29;2.10;;;1.70;;
10550;SDS011;5324;50.684;3.862;2022-07-06T00:35:55;2.50;;;1.80;;
10550;SDS011;5324;50.684;3.862;2022-07-06T00:38:21;2.07;;;1.70;;
10550;SDS011;5324;50.684;3.862;2022-07-06T00:40:47;2.57;;;1.60;;
10550;SDS011;5324;50.684;3.862;2022-07-06T00:43:13;1.97;;;1.70;;
10550;SDS011;5324;50.684;3.862;2022-07-06T00:45:39;2.63;;;2.03;;
10550;SDS011;5324;50.684;3.862;2022-07-06T00:48:05;2.53;;;1.90;;
10550;SDS011;5324;50.684;3.862;2022-07-06T00:50:31;5.37;;;1.90;;
10550;SDS011;5324;50.684;3.862;2022-07-06T00:53:00;3.80;;;2.10;;
10550;SDS011;5324;50.684;3.862;2022-07-06T00:55:27;2.17;;;1.93;;
10550;SDS011;5324;50.684;3.862;2022-07-06T00:57:54;2.10;;;1.90;;
10550;SDS011;5324;50.684;3.862;2022-07-06T01:00:21;1.90;;;1.80;;
10550;SDS011;5324;50.684;3.862;2022-07-06T01:02:47;3.40;;;2.30;;
10550;SDS011;5324;50.684;3.862;2022-07-06T01:05:15;5.30;;;2.20;;
10550;SDS011;5324;50.684;3.862;2022-07-06T01:07:42;2.50;;;2.30;;
10550;SDS011;5324;50.684;3.862;2022-07-06T01:10:10;2.57;;;2.07;;
10550;SDS011;5324;50.684;3.862;2022-07-06T01:12:36;5.70;;;2.60;;
10550;SDS011;5324;50.684;3.862;2022-07-06T01:15:03;2.40;;;2.20;;
10550;SDS011;5324;50.684;3.862;2022-07-06T01:17:30;2.67;;;2.37;;
10550;SDS011;5324;50.684;3.862;2022-07-06T01:20:21;2.27;;;2.10;;
10550;SDS011;5324;50.684;3.862;2022-07-06T01:22:46;2.23;;;2.03;;
10550;SDS011;5324;50.684;3.862;2022-07-06T01:25:12;2.93;;;2.20;;
10550;SDS011;5324;50.684;3.862;2022-07-06T01:27:41;2.23;;;2.00;;
10550;SDS011;5324;50.684;3.862;2022-07-06T01:30:09;2.00;;;1.90;;
10550;SDS011;5324;50.684;3.862;2022-07-06T01:32:37;4.37;;;2.10;;
10550;SDS011;5324;50.684;3.862;2022-07-06T01:35:04;2.57;;;2.20;;
10550;SDS011;5324;50.684;3.862;2022-07-06T01:37:31;2.40;;;2.20;;
10550;SDS011;5324;50.684;3.862;2022-07-06T01:39:57;4.20;;;2.37;;
10550;SDS011;5324;50.684;3.862;2022-07-06T01:42:24;2.37;;;2.17;;
10550;SDS011;5324;50.684;3.862;2022-07-06T01:44:50;2.03;;;1.93;;
10550;SDS011;5324;50.684;3.862;2022-07-06T01:47:16;3.67;;;2.13;;
10550;SDS011;5324;50.684;3.862;2022-07-06T01:49:42;3.20;;;2.27;;
10550;SDS011;5324;50.684;3.862;2022-07-06T01:52:08;3.30;;;2.30;;
10550;SDS011;5324;50.684;3.862;2022-07-06T01:54:34;2.50;;;2.30;;
10550;SDS011;5324;50.684;3.862;2022-07-06T01:57:01;1.97;;;1.87;;
10550;SDS011;5324;50.684;3.862;2022-07-06T01:59:27;2.73;;;2.47;;
10550;SDS011;5324;50.684;3.862;2022-07-06T02:01:54;2.10;;;2.00;;
10550;SDS011;5324;50.684;3.862;2022-07-06T02:04:21;2.40;;;2.20;;
10550;SDS011;5324;50.684;3.862;2022-07-06T02:06:48;2.50;;;2.30;;
10550;SDS011;5324;50.684;3.862;2022-07-06T02:09:14;2.70;;;2.17;;
10550;SDS011;5324;50.684;3.862;2022-07-06T02:11:41;3.43;;;2.70;;
10550;SDS011;5324;50.684;3.862;2022-07-06T02:14:07;3.27;;;2.27;;
10550;SDS011;5324;50.684;3.862;2022-07-06T02:16:33;2.73;;;2.50;;
10550;SDS011;5324;50.684;3.862;2022-07-06T02:18:59;3.50;;;2.40;;
10550;SDS011;5324;50.684;3.862;2022-07-06T02:21:26;2.50;;;2.30;;
10550;SDS011;5324;50.684;3.862;2022-07-06T02:23:52;2.70;;;2.37;;
10550;SDS011;5324;50.684;3.862;2022-07-06T02:26:18;4.50;;;2.57;;
10550;SDS011;5324;50.684;3.862;2022-07-06T02:28:44;2.67;;;2.30;;
10550;SDS011;5324;50.684;3.862;2022-07-06T02:31:12;2.60;;;2.40;;
10550;SDS011;5324;50.684;3.862;2022-07-06T02:33:38;2.30;;;2.10;;
10550;SDS011;5324;50.684;3.862;2022-07-06T02:36:05;3.73;;;2.30;;
10550;SDS011;5324;50.684;3.862;2022-07-06T02:38:31;4.03;;;2.40;;
10550;SDS011;5324;50.684;3.862;2022-07-06T02:40:57;2.83;;;2.63;;
10550;SDS011;5324;50.684;3.862;2022-07-06T02:43:23;2.43;;;2.23;;
10550;SDS011;5324;50.684;3.862;2022-07-06T02:45:49;4.07;;;2.40;;
10550;SDS011;5324;50.684;3.862;2022-07-06T02:48:17;2.53;;;2.33;;
10550;SDS011;5324;50.684;3.862;2022-07-06T02:50:46;2.70;;;2.27;;
10550;SDS011;5324;50.684;3.862;2022-07-06T02:53:12;3.17;;;2.40;;
10550;SDS011;5324;50.684;3.862;2022-07-06T02:55:38;3.50;;;2.77;;
10550;SDS011;5324;50.684;3.862;2022-07-06T02:58:04;2.93;;;2.20;;
10550;SDS011;5324;50.684;3.862;2022-07-06T03:00:30;2.80;;;2.40;;
10550;SDS011;5324;50.684;3.862;2022-07-06T03:02:57;2.33;;;2.13;;
10550;SDS011;5324;50.684;3.862;2022-07-06T03:05:23;2.70;;;2.50;;
10550;SDS011;5324;50.684;3.862;2022-07-06T03:07:49;2.87;;;2.53;;
10550;SDS011;5324;50.684;3.862;2022-07-06T03:10:15;2.70;;;2.50;;
10550;SDS011;5324;50.684;3.862;2022-07-06T03:12:41;4.17;;;2.60;;
10550;SDS011;5324;50.684;3.862;2022-07-06T03:15:07;2.67;;;2.40;;
10550;SDS011;5324;50.684;3.862;2022-07-06T03:17:37;3.13;;;2.70;;
10550;SDS011;5324;50.684;3.862;2022-07-06T03:20:04;2.60;;;2.40;;
10550;SDS011;5324;50.684;3.862;2022-07-06T03:22:30;2.57;;;2.30;;
10550;SDS011;5324;50.684;3.862;2022-07-06T03:24:56;2.90;;;2.50;;
10550;SDS011;5324;50.684;3.862;2022-07-06T03:27:22;2.53;;;2.33;;
10550;SDS011;5324;50.684;3.862;2022-07-06T03:29:48;4.13;;;2.83;;
10550;SDS011;5324;50.684;3.862;2022-07-06T03:32:14;3.00;;;2.53;;
10550;SDS011;5324;50.684;3.862;2022-07-06T03:34:40;3.30;;;2.73;;
10550;SDS011;5324;50.684;3.862;2022-07-06T03:37:06;5.00;;;2.47;;
10550;SDS011;5324;50.684;3.862;2022-07-06T03:39:33;2.70;;;2.50;;
10550;SDS011;5324;50.684;3.862;2022-07-06T03:41:59;2.37;;;2.17;;
10550;SDS011;5324;50.684;3.862;2022-07-06T03:44:25;3.97;;;2.53;;
10550;SDS011;5324;50.684;3.862;2022-07-06T03:46:51;3.33;;;3.03;;
10550;SDS011;5324;50.684;3.862;2022-07-06T03:49:20;4.70;;;3.00;;
10550;SDS011;5324;50.684;3.862;2022-07-06T03:51:46;3.77;;;2.63;;
10550;SDS011;5324;50.684;3.862;2022-07-06T03:54:12;4.40;;;3.17;;
10550;SDS011;5324;50.684;3.862;2022-07-06T03:56:38;2.67;;;2.47;;
10550;SDS011;5324;50.684;3.862;2022-07-06T03:59:04;3.57;;;2.87;;
10550;SDS011;5324;50.684;3.862;2022-07-06T04:01:30;3.63;;;2.87;;
10550;SDS011;5324;50.684;3.862;2022-07-06T04:03:58;4.63;;;2.80;;
10550;SDS011;5324;50.684;3.862;2022-07-06T04:06:24;4.00;;;2.70;;
10550;SDS011;5324;50.684;3.862;2022-07-06T04:08:50;3.30;;;3.00;;
10550;SDS011;5324;50.684;3.862;2022-07-06T04:11:16;2.70;;;2.50;;
10550;SDS011;5324;50.684;3.862;2022-07-06T04:13:42;4.67;;;2.40;;
10550;SDS011;5324;50.684;3.862;2022-07-06T04:16:08;2.80;;;2.60;;
10550;SDS011;5324;50.684;3.862;2022-07-06T04:18:34;3.70;;;2.80;;
10550;SDS011;5324;50.684;3.862;2022-07-06T04:21:00;3.37;;;2.73;;
10550;SDS011;5324;50.684;3.862;2022-07-06T04:23:28;3.63;;;2.97;;
10550;SDS011;5324;50.684;3.862;2022-07-06T04:25:54;3.00;;;2.73;;
10550;SDS011;5324;50.684;3.862;2022-07-06T04:28:20;3.40;;;3.10;;
10550;SDS011;5324;50.684;3.862;2022-07-06T04:30:46;5.60;;;2.70;;
10550;SDS011;5324;50.684;3.862;2022-07-06T04:33:12;4.93;;;2.80;;
10550;SDS011;5324;50.684;3.862;2022-07-06T04:35:39;3.80;;;2.90;;
10550;SDS011;5324;50.684;3.862;2022-07-06T04:38:05;5.87;;;3.47;;
10550;SDS011;5324;50.684;3.862;2022-07-06T04:40:31;5.03;;;2.73;;
10550;SDS011;5324;50.684;3.862;2022-07-06T04:42:57;3.10;;;2.67;;
10550;SDS011;5324;50.684;3.862;2022-07-06T04:45:24;6.33;;;2.73;;
10550;SDS011;5324;50.684;3.862;2022-07-06T04:47:50;4.50;;;2.93;;
10550;SDS011;5324;50.684;3.862;2022-07-06T04:50:16;3.93;;;2.97;;
10550;SDS011;5324;50.684;3.862;2022-07-06T04:52:42;6.13;;;3.23;;
10550;SDS011;5324;50.684;3.862;2022-07-06T04:55:08;10.53;;;3.67;;
10550;SDS011;5324;50.684;3.862;2022-07-06T04:57:35;7.93;;;3.47;;
10550;SDS011;5324;50.684;3.862;2022-07-06T05:00:01;3.63;;;3.03;;
10550;SDS011;5324;50.684;3.862;2022-07-06T05:02:27;3.93;;;3.53;;
10550;SDS011;5324;50.684;3.862;2022-07-06T05:04:53;3.87;;;3.23;;
10550;SDS011;5324;50.684;3.862;2022-07-06T05:07:19;3.70;;;2.77;;
10550;SDS011;5324;50.684;3.862;2022-07-06T05:09:45;3.20;;;2.90;;
10550;SDS011;5324;50.684;3.862;2022-07-06T05:12:11;3.93;;;3.57;;
10550;SDS011;5324;50.684;3.862;2022-07-06T05:14:37;5.27;;;3.13;;
10550;SDS011;5324;50.684;3.862;2022-07-06T05:17:03;3.87;;;3.47;;
10550;SDS011;5324;50.684;3.862;2022-07-06T05:19:30;4.70;;;3.50;;
10550;SDS011;5324;50.684;3.862;2022-07-06T05:21:56;4.40;;;3.70;;
10550;SDS011;5324;50.684;3.862;2022-07-06T05:24:22;4.43;;;3.67;;
10550;SDS011;5324;50.684;3.862;2022-07-06T05:26:48;4.40;;;4.00;;
10550;SDS011;5324;50.684;3.862;2022-07-06T05:29:14;6.40;;;3.93;;
10550;SDS011;5324;50.684;3.862;2022-07-06T05:31:40;4.53;;;3.77;;
10550;SDS011;5324;50.684;3.862;2022-07-06T05:34:06;3.93;;;3.63;;
10550;SDS011;5324;50.684;3.862;2022-07-06T05:36:32;6.23;;;3.60;;
10550;SDS011;5324;50.684;3.862;2022-07-06T05:38:58;5.20;;;3.83;;
10550;SDS011;5324;50.684;3.862;2022-07-06T05:41:24;4.67;;;3.37;;
10550;SDS011;5324;50.684;3.862;2022-07-06T05:43:50;6.73;;;4.00;;
10550;SDS011;5324;50.684;3.862;2022-07-06T05:46:16;4.50;;;4.10;;
10550;SDS011;5324;50.684;3.862;2022-07-06T05:48:42;5.93;;;3.83;;
10550;SDS011;5324;50.684;3.862;2022-07-06T05:51:26;4.47;;;4.07;;
10550;SDS011;5324;50.684;3.862;2022-07-06T05:53:52;5.03;;;3.67;;
10550;SDS011;5324;50.684;3.862;2022-07-06T05:56:18;4.70;;;4.00;;
10550;SDS011;5324;50.684;3.862;2022-07-06T05:58:44;3.70;;;3.30;;
10550;SDS011;5324;50.684;3.862;2022-07-06T06:01:10;5.40;;;3.70;;
10550;SDS011;5324;50.684;3.862;2022-07-06T06:03:37;6.63;;;3.90;;
10550;SDS011;5324;50.684;3.862;2022-07-06T06:06:03;5.37;;;4.00;;
10550;SDS011;5324;50.684;3.862;2022-07-06T06:08:30;4.73;;;3.27;;
10550;SDS011;5324;50.684;3.862;2022-07-06T06:10:56;7.70;;;4.33;;
10550;SDS011;5324;50.684;3.862;2022-07-06T06:13:22;5.80;;;4.60;;
10550;SDS011;5324;50.684;3.862;2022-07-06T06:15:48;6.17;;;4.17;;
10550;SDS011;5324;50.684;3.862;2022-07-06T06:18:14;5.23;;;3.80;;
10550;SDS011;5324;50.684;3.862;2022-07-06T06:20:42;5.27;;;3.83;;
10550;SDS011;5324;50.684;3.862;2022-07-06T06:23:08;5.63;;;3.73;;
10550;SDS011;5324;50.684;3.862;2022-07-06T06:25:38;5.47;;;4.20;;
10550;SDS011;5324;50.684;3.862;2022-07-06T06:28:05;5.22;;;4.30;;
10550;SDS011;5324;50.684;3.862;2022-07-06T06:30:31;6.35;;;4.20;;
10550;SDS011;5324;50.684;3.862;2022-07-06T06:33:05;4.93;;;4.28;;
10550;SDS011;5324;50.684;3.862;2022-07-06T06:35:31;4.30;;;3.60;;
10550;SDS011;5324;50.684;3.862;2022-07-06T06:37:57;4.97;;;4.25;;
10550;SDS011;5324;50.684;3.862;2022-07-06T06:40:23;6.13;;;3.75;;
10550;SDS011;5324;50.684;3.862;2022-07-06T06:42:49;3.67;;;3.33;;
10550;SDS011;5324;50.684;3.862;2022-07-06T06:45:15;5.32;;;4.20;;
10550;SDS011;5324;50.684;3.862;2022-07-06T06:47:41;6.78;;;4.35;;
10550;SDS011;5324;50.684;3.862;2022-07-06T06:50:07;4.70;;;3.35;;
10550;SDS011;5324;50.684;3.862;2022-07-06T06:52:33;6.78;;;3.80;;
10550;SDS011;5324;50.684;3.862;2022-07-06T06:54:59;4.38;;;3.97;;
10550;SDS011;5324;50.684;3.862;2022-07-06T06:57:25;5.75;;;3.85;;
10550;SDS011;5324;50.684;3.862;2022-07-06T06:59:53;6.25;;;3.88;;
10550;SDS011;5324;50.684;3.862;2022-07-06T07:02:19;4.00;;;3.50;;
10550;SDS011;5324;50.684;3.862;2022-07-06T07:04:45;4.63;;;3.50;;
10550;SDS011;5324;50.684;3.862;2022-07-06T07:07:11;8.25;;;3.60;;
10550;SDS011;5324;50.684;3.862;2022-07-06T07:09:37;3.72;;;3.38;;
10550;SDS011;5324;50.684;3.862;2022-07-06T07:12:03;4.60;;;4.15;;
10550;SDS011;5324;50.684;3.862;2022-07-06T07:14:30;6.72;;;4.35;;
10550;SDS011;5324;50.684;3.862;2022-07-06T07:16:56;7.80;;;3.83;;
10550;SDS011;5324;50.684;3.862;2022-07-06T07:19:22;5.45;;;4.15;;
10550;SDS011;5324;50.684;3.862;2022-07-06T07:21:48;6.43;;;4.13;;
10550;SDS011;5324;50.684;3.862;2022-07-06T07:24:14;5.93;;;4.25;;
10550;SDS011;5324;50.684;3.862;2022-07-06T07:26:40;9.65;;;4.88;;
10550;SDS011;5324;50.684;3.862;2022-07-06T07:29:06;7.65;;;4.55;;
10550;SDS011;5324;50.684;3.862;2022-07-06T07:31:32;5.65;;;5.07;;
10550;SDS011;5324;50.684;3.862;2022-07-06T07:33:58;8.13;;;5.72;;
10550;SDS011;5324;50.684;3.862;2022-07-06T07:36:25;6.82;;;5.47;;
10550;SDS011;5324;50.684;3.862;2022-07-06T07:38:51;6.68;;;4.43;;
10550;SDS011;5324;50.684;3.862;2022-07-06T07:41:17;7.13;;;5.05;;
10550;SDS011;5324;50.684;3.862;2022-07-06T07:43:43;7.18;;;4.18;;
10550;SDS011;5324;50.684;3.862;2022-07-06T07:46:09;5.68;;;4.30;;
10550;SDS011;5324;50.684;3.862;2022-07-06T07:48:35;4.43;;;3.65;;
10550;SDS011;5324;50.684;3.862;2022-07-06T07:51:01;6.65;;;4.30;;
10550;SDS011;5324;50.684;3.862;2022-07-06T07:53:27;11.75;;;4.78;;
10550;SDS011;5324;50.684;3.862;2022-07-06T07:55:53;7.55;;;4.60;;
10550;SDS011;5324;50.684;3.862;2022-07-06T07:58:20;4.97;;;3.60;;
10550;SDS011;5324;50.684;3.862;2022-07-06T08:00:46;6.05;;;3.97;;
10550;SDS011;5324;50.684;3.862;2022-07-06T08:03:12;5.05;;;3.90;;
10550;SDS011;5324;50.684;3.862;2022-07-06T08:05:38;4.32;;;3.92;;
10550;SDS011;5324;50.684;3.862;2022-07-06T08:08:04;4.40;;;3.50;;
10550;SDS011;5324;50.684;3.862;2022-07-06T08:10:30;4.90;;;3.22;;
10550;SDS011;5324;50.684;3.862;2022-07-06T08:12:56;3.88;;;3.00;;
10550;SDS011;5324;50.684;3.862;2022-07-06T08:15:22;4.28;;;2.70;;
10550;SDS011;5324;50.684;3.862;2022-07-06T08:17:48;2.60;;;2.40;;
10550;SDS011;5324;50.684;3.862;2022-07-06T08:20:14;5.07;;;3.53;;
10550;SDS011;5324;50.684;3.862;2022-07-06T08:22:43;4.82;;;3.08;;
10550;SDS011;5324;50.684;3.862;2022-07-06T08:25:09;5.18;;;3.25;;
10550;SDS011;5324;50.684;3.862;2022-07-06T08:27:36;4.47;;;2.55;;
10550;SDS011;5324;50.684;3.862;2022-07-06T08:30:03;5.18;;;3.30;;
10550;SDS011;5324;50.684;3.862;2022-07-06T08:32:29;4.90;;;3.40;;
10550;SDS011;5324;50.684;3.862;2022-07-06T08:34:55;6.03;;;3.08;;
10550;SDS011;5324;50.684;3.862;2022-07-06T08:37:21;6.10;;;2.58;;
10550;SDS011;5324;50.684;3.862;2022-07-06T08:39:47;3.55;;;2.60;;
10550;SDS011;5324;50.684;3.862;2022-07-06T08:42:13;4.07;;;2.53;;
10550;SDS011;5324;50.684;3.862;2022-07-06T08:44:41;4.53;;;2.53;;
10550;SDS011;5324;50.684;3.862;2022-07-06T08:47:08;3.95;;;2.42;;
10550;SDS011;5324;50.684;3.862;2022-07-06T08:49:35;4.55;;;2.88;;
10550;SDS011;5324;50.684;3.862;2022-07-06T08:52:02;2.78;;;2.30;;
10550;SDS011;5324;50.684;3.862;2022-07-06T08:54:29;3.42;;;2.58;;
10550;SDS011;5324;50.684;3.862;2022-07-06T08:56:55;4.40;;;2.33;;
10550;SDS011;5324;50.684;3.862;2022-07-06T08:59:21;5.38;;;2.42;;
10550;SDS011;5324;50.684;3.862;2022-07-06T09:01:47;2.75;;;2.08;;
10550;SDS011;5324;50.684;3.862;2022-07-06T09:04:17;4.05;;;2.28;;
10550;SDS011;5324;50.684;3.862;2022-07-06T09:06:46;2.67;;;2.42;;
10550;SDS011;5324;50.684;3.862;2022-07-06T09:09:15;4.80;;;2.47;;
10550;SDS011;5324;50.684;3.862;2022-07-06T09:11:43;4.32;;;2.63;;
10550;SDS011;5324;50.684;3.862;2022-07-06T09:14:09;3.35;;;2.83;;
10550;SDS011;5324;50.684;3.862;2022-07-06T09:16:36;4.47;;;2.90;;
10550;SDS011;5324;50.684;3.862;2022-07-06T09:19:02;2.55;;;2.28;;
10550;SDS011;5324;50.684;3.862;2022-07-06T09:21:30;5.10;;;2.30;;
10550;SDS011;5324;50.684;3.862;2022-07-06T09:23:57;2.95;;;2.55;;
10550;SDS011;5324;50.684;3.862;2022-07-06T09:26:24;3.25;;;2.72;;
10550;SDS011;5324;50.684;3.862;2022-07-06T09:28:50;3.25;;;2.42;;
10550;SDS011;5324;50.684;3.862;2022-07-06T09:31:17;7.28;;;2.58;;
10550;SDS011;5324;50.684;3.862;2022-07-06T09:33:55;5.10;;;2.80;;
10550;SDS011;5324;50.684;3.862;2022-07-06T09:39:19;4.22;;;3.20;;
10550;SDS011;5324;50.684;3.862;2022-07-06T09:41:48;5.00;;;3.40;;
10550;SDS011;5324;50.684;3.862;2022-07-06T09:44:18;5.40;;;2.97;;
10550;SDS011;5324;50.684;3.862;2022-07-06T09:46:45;4.95;;;3.10;;
10550;SDS011;5324;50.684;3.862;2022-07-06T09:49:12;4.53;;;3.40;;
10550;SDS011;5324;50.684;3.862;2022-07-06T09:51:38;6.30;;;3.47;;
10550;SDS011;5324;50.684;3.862;2022-07-06T09:54:08;5.07;;;2.60;;
10550;SDS011;5324;50.684;3.862;2022-07-06T09:56:41;4.90;;;3.13;;
10550;SDS011;5324;50.684;3.862;2022-07-06T09:59:11;3.38;;;2.90;;
10550;SDS011;5324;50.684;3.862;2022-07-06T10:01:37;4.93;;;2.88;;
10550;SDS011;5324;50.684;3.862;2022-07-06T10:04:07;4.22;;;3.15;;
10550;SDS011;5324;50.684;3.862;2022-07-06T10:06:33;3.67;;;2.55;;
10550;SDS011;5324;50.684;3.862;2022-07-06T10:09:00;4.80;;;2.70;;
10550;SDS011;5324;50.684;3.862;2022-07-06T10:11:27;4.35;;;2.78;;
10550;SDS011;5324;50.684;3.862;2022-07-06T10:13:55;4.25;;;2.80;;
10550;SDS011;5324;50.684;3.862;2022-07-06T10:16:24;3.60;;;2.63;;
10550;SDS011;5324;50.684;3.862;2022-07-06T10:18:51;3.80;;;2.90;;
10550;SDS011;5324;50.684;3.862;2022-07-06T10:21:24;3.80;;;2.75;;
10550;SDS011;5324;50.684;3.862;2022-07-06T10:23:50;3.70;;;2.72;;
10550;SDS011;5324;50.684;3.862;2022-07-06T10:26:17;4.00;;;2.80;;
10550;SDS011;5324;50.684;3.862;2022-07-06T10:28:43;4.22;;;2.78;;
10550;SDS011;5324;50.684;3.862;2022-07-06T10:31:11;5.30;;;3.28;;
10550;SDS011;5324;50.684;3.862;2022-07-06T10:33:38;4.63;;;2.75;;
10550;SDS011;5324;50.684;3.862;2022-07-06T10:36:05;5.03;;;2.90;;
10550;SDS011;5324;50.684;3.862;2022-07-06T10:38:32;3.80;;;2.67;;
10550;SDS011;5324;50.684;3.862;2022-07-06T10:41:02;4.00;;;2.80;;
10550;SDS011;5324;50.684;3.862;2022-07-06T10:48:42;4.18;;;2.65;;
10550;SDS011;5324;50.684;3.862;2022-07-06T10:51:12;4.18;;;2.50;;
10550;SDS011;5324;50.684;3.862;2022-07-06T10:53:49;4.22;;;2.50;;
10550;SDS011;5324;50.684;3.862;2022-07-06T10:56:20;3.65;;;2.75;;
10550;SDS011;5324;50.684;3.862;2022-07-06T10:59:01;4.80;;;2.80;;
10550;SDS011;5324;50.684;3.862;2022-07-06T11:01:27;3.40;;;2.35;;
10550;SDS011;5324;50.684;3.862;2022-07-06T11:06:24;4.78;;;3.25;;
10550;SDS011;5324;50.684;3.862;2022-07-06T11:09:00;5.97;;;2.75;;
10550;SDS011;5324;50.684;3.862;2022-07-06T11:11:37;3.97;;;2.45;;
10550;SDS011;5324;50.684;3.862;2022-07-06T11:14:18;4.40;;;2.85;;
10550;SDS011;5324;50.684;3.862;2022-07-06T11:19:16;3.85;;;2.72;;
10550;SDS011;5324;50.684;3.862;2022-07-06T11:21:45;5.30;;;3.13;;
10550;SDS011;5324;50.684;3.862;2022-07-06T11:24:13;4.00;;;2.78;;
10550;SDS011;5324;50.684;3.862;2022-07-06T11:26:39;5.50;;;2.80;;
10550;SDS011;5324;50.684;3.862;2022-07-06T11:29:09;4.43;;;2.70;;
10550;SDS011;5324;50.684;3.862;2022-07-06T11:31:39;5.15;;;3.28;;
10550;SDS011;5324;50.684;3.862;2022-07-06T11:34:06;4.70;;;2.90;;
10550;SDS011;5324;50.684;3.862;2022-07-06T11:36:32;5.28;;;2.80;;
10550;SDS011;5324;50.684;3.862;2022-07-06T11:38:59;4.38;;;3.15;;
10550;SDS011;5324;50.684;3.862;2022-07-06T11:41:25;4.45;;;3.67;;
10550;SDS011;5324;50.684;3.862;2022-07-06T11:43:51;6.28;;;3.15;;
10550;SDS011;5324;50.684;3.862;2022-07-06T11:46:20;3.85;;;2.50;;
10550;SDS011;5324;50.684;3.862;2022-07-06T11:48:47;5.10;;;2.88;;
10550;SDS011;5324;50.684;3.862;2022-07-06T11:51:13;5.63;;;2.90;;
10550;SDS011;5324;50.684;3.862;2022-07-06T11:53:47;6.50;;;3.30;;
10550;SDS011;5324;50.684;3.862;2022-07-06T11:56:16;7.00;;;2.97;;
10550;SDS011;5324;50.684;3.862;2022-07-06T11:58:56;4.10;;;2.80;;
10550;SDS011;5324;50.684;3.862;2022-07-06T12:01:23;2.70;;;2.47;;
10550;SDS011;5324;50.684;3.862;2022-07-06T12:03:50;6.65;;;2.45;;
10550;SDS011;5324;50.684;3.862;2022-07-06T12:06:20;5.28;;;2.80;;
10550;SDS011;5324;50.684;3.862;2022-07-06T12:08:48;2.53;;;2.30;;
10550;SDS011;5324;50.684;3.862;2022-07-06T12:11:22;3.83;;;2.13;;
10550;SDS011;5324;50.684;3.862;2022-07-06T12:13:49;2.72;;;2.50;;
10550;SDS011;5324;50.684;3.862;2022-07-06T12:16:15;2.50;;;2.30;;
10550;SDS011;5324;50.684;3.862;2022-07-06T12:18:42;3.50;;;2.35;;
10550;SDS011;5324;50.684;3.862;2022-07-06T12:21:10;6.55;;;2.10;;
10550;SDS011;5324;50.684;3.862;2022-07-06T12:23:38;3.45;;;2.10;;
10550;SDS011;5324;50.684;3.862;2022-07-06T12:26:04;3.65;;;1.80;;
10550;SDS011;5324;50.684;3.862;2022-07-06T12:28:30;5.53;;;2.10;;
10550;SDS011;5324;50.684;3.862;2022-07-06T12:30:56;5.75;;;2.42;;
10550;SDS011;5324;50.684;3.862;2022-07-06T12:33:22;3.67;;;2.13;;
10550;SDS011;5324;50.684;3.862;2022-07-06T12:35:48;4.30;;;2.17;;
10550;SDS011;5324;50.684;3.862;2022-07-06T12:38:27;3.83;;;2.03;;
10550;SDS011;5324;50.684;3.862;2022-07-06T12:40:54;4.35;;;2.40;;
10550;SDS011;5324;50.684;3.862;2022-07-06T12:43:39;4.28;;;2.47;;
10550;SDS011;5324;50.684;3.862;2022-07-06T12:48:51;2.40;;;2.03;;
10550;SDS011;5324;50.684;3.862;2022-07-06T12:51:17;3.20;;;1.95;;
10550;SDS011;5324;50.684;3.862;2022-07-06T12:53:43;5.68;;;2.70;;
10550;SDS011;5324;50.684;3.862;2022-07-06T12:56:10;3.83;;;2.25;;
10550;SDS011;5324;50.684;3.862;2022-07-06T12:58:36;4.68;;;2.30;;
10550;SDS011;5324;50.684;3.862;2022-07-06T13:01:02;5.05;;;2.58;;
10550;SDS011;5324;50.684;3.862;2022-07-06T13:03:37;3.50;;;2.20;;
10550;SDS011;5324;50.684;3.862;2022-07-06T13:06:04;3.80;;;2.80;;
10550;SDS011;5324;50.684;3.862;2022-07-06T13:08:30;3.42;;;2.25;;
10550;SDS011;5324;50.684;3.862;2022-07-06T13:10:56;2.03;;;1.92;;
10550;SDS011;5324;50.684;3.862;2022-07-06T13:13:22;3.05;;;2.65;;
10550;SDS011;5324;50.684;3.862;2022-07-06T13:15:48;4.72;;;2.20;;
10550;SDS011;5324;50.684;3.862;2022-07-06T13:18:15;2.92;;;2.17;;
10550;SDS011;5324;50.684;3.862;2022-07-06T13:20:43;2.65;;;2.45;;
10550;SDS011;5324;50.684;3.862;2022-07-06T13:23:10;5.25;;;2.70;;
10550;SDS011;5324;50.684;3.862;2022-07-06T13:25:36;5.38;;;2.88;;
10550;SDS011;5324;50.684;3.862;2022-07-06T13:28:02;3.67;;;2.67;;
10550;SDS011;5324;50.684;3.862;2022-07-06T13:30:28;3.45;;;2.42;;
10550;SDS011;5324;50.684;3.862;2022-07-06T13:32:54;2.78;;;2.22;;
10550;SDS011;5324;50.684;3.862;2022-07-06T13:35:21;4.55;;;2.83;;
10550;SDS011;5324;50.684;3.862;2022-07-06T13:37:48;3.90;;;2.75;;
10550;SDS011;5324;50.684;3.862;2022-07-06T13:40:15;2.95;;;2.30;;
10550;SDS011;5324;50.684;3.862;2022-07-06T13:42:42;4.05;;;2.58;;
10550;SDS011;5324;50.684;3.862;2022-07-06T13:45:08;2.85;;;2.30;;
10550;SDS011;5324;50.684;3.862;2022-07-06T13:47:34;3.08;;;2.53;;
10550;SDS011;5324;50.684;3.862;2022-07-06T13:50:00;3.35;;;2.20;;
10550;SDS011;5324;50.684;3.862;2022-07-06T13:52:26;2.92;;;2.50;;
10550;SDS011;5324;50.684;3.862;2022-07-06T13:54:52;3.42;;;2.60;;
10550;SDS011;5324;50.684;3.862;2022-07-06T13:57:18;3.22;;;2.45;;
10550;SDS011;5324;50.684;3.862;2022-07-06T13:59:44;3.85;;;2.92;;
10550;SDS011;5324;50.684;3.862;2022-07-06T14:02:11;3.92;;;2.80;;
10550;SDS011;5324;50.684;3.862;2022-07-06T14:04:37;2.92;;;2.42;;
10550;SDS011;5324;50.684;3.862;2022-07-06T14:07:03;5.10;;;2.75;;
10550;SDS011;5324;50.684;3.862;2022-07-06T14:09:30;4.75;;;2.92;;
10550;SDS011;5324;50.684;3.862;2022-07-06T14:11:56;3.15;;;2.33;;
10550;SDS011;5324;50.684;3.862;2022-07-06T14:14:22;4.15;;;2.47;;
10550;SDS011;5324;50.684;3.862;2022-07-06T14:16:48;3.00;;;2.70;;
10550;SDS011;5324;50.684;3.862;2022-07-06T14:19:16;3.55;;;2.75;;
10550;SDS011;5324;50.684;3.862;2022-07-06T14:21:42;7.38;;;2.70;;
10550;SDS011;5324;50.684;3.862;2022-07-06T14:24:09;4.03;;;2.50;;
10550;SDS011;5324;50.684;3.862;2022-07-06T14:26:35;3.47;;;2.45;;
10550;SDS011;5324;50.684;3.862;2022-07-06T14:29:01;3.40;;;2.70;;
10550;SDS011;5324;50.684;3.862;2022-07-06T14:31:27;3.13;;;2.65;;
10550;SDS011;5324;50.684;3.862;2022-07-06T14:33:53;5.45;;;3.03;;
10550;SDS011;5324;50.684;3.862;2022-07-06T14:36:19;4.50;;;2.75;;
10550;SDS011;5324;50.684;3.862;2022-07-06T14:38:45;3.42;;;2.70;;
10550;SDS011;5324;50.684;3.862;2022-07-06T14:41:12;3.92;;;2.90;;
10550;SDS011;5324;50.684;3.862;2022-07-06T14:43:38;3.40;;;2.90;;
10550;SDS011;5324;50.684;3.862;2022-07-06T14:46:04;4.25;;;2.90;;
10550;SDS011;5324;50.684;3.862;2022-07-06T14:48:30;3.13;;;2.92;;
10550;SDS011;5324;50.684;3.862;2022-07-06T14:50:56;4.32;;;3.17;;
10550;SDS011;5324;50.684;3.862;2022-07-06T14:53:23;3.20;;;2.90;;
10550;SDS011;5324;50.684;3.862;2022-07-06T14:55:49;3.28;;;2.97;;
10550;SDS011;5324;50.684;3.862;2022-07-06T14:58:15;3.53;;;3.17;;
10550;SDS011;5324;50.684;3.862;2022-07-06T15:00:43;4.10;;;3.08;;
10550;SDS011;5324;50.684;3.862;2022-07-06T15:03:10;4.70;;;3.42;;
10550;SDS011;5324;50.684;3.862;2022-07-06T15:05:36;4.68;;;3.08;;
10550;SDS011;5324;50.684;3.862;2022-07-06T15:08:02;5.30;;;3.63;;
10550;SDS011;5324;50.684;3.862;2022-07-06T15:10:30;6.65;;;3.47;;
10550;SDS011;5324;50.684;3.862;2022-07-06T15:12:56;4.22;;;3.10;;
10550;SDS011;5324;50.684;3.862;2022-07-06T15:15:22;3.88;;;3.40;;